Time;durP1;ratioP1;P1;durP2;ratioP2;P2;SDS_P1;SDS_P2;PMS_P1;PMS_P2;Temp;Humidity;BMP_temperature;BMP_pressure;BME280_temperature;BME280_humidity;BME280_pressure;Samples;Min_cycle;Max_cycle;Signal;HPM_P1;HPM_P2
2022/07/03 00:00:53;;;;;;;6.90;4.80;;;;;;;18.19;83.49;100885.87;130255;1268;108738;-73
2022/07/03 00:03:58;;;;;;;5.20;4.30;;;;;;;18.24;83.30;100887.49;130250;1268;109125;-73
2022/07/03 00:07:04;;;;;;;5.50;4.40;;;;;;;18.23;83.41;100884.27;130257;1268;107818;-73
2022/07/03 00:10:11;;;;;;;5.80;3.90;;;;;;;18.23;83.66;100882.48;130293;1268;108874;-74
2022/07/03 00:13:16;;;;;;;5.50;4.20;;;;;;;18.29;83.46;100884.46;130254;1268;108826;-74
2022/07/03 00:16:22;;;;;;;6.10;4.70;;;;;;;18.35;83.49;100880.27;130197;1268;108632;-75
2022/07/03 00:19:27;;;;;;;6.80;4.80;;;;;;;18.39;83.46;100875.03;130234;1268;108960;-75
2022/07/03 00:22:38;;;;;;;7.20;4.40;;;;;;;18.40;83.42;100867.61;130228;1268;108551;-75
2022/07/03 00:25:44;;;;;;;5.30;4.00;;;;;;;18.40;83.41;100868.77;130285;1268;108344;-74
2022/07/03 00:28:50;;;;;;;5.40;4.50;;;;;;;18.43;83.39;100870.39;130328;1268;109686;-75
2022/07/03 00:31:56;;;;;;;5.20;4.60;;;;;;;18.45;83.42;100867.45;130333;1268;108817;-72
2022/07/03 00:35:03;;;;;;;6.70;5.30;;;;;;;18.45;83.44;100861.59;130291;1268;108763;-73
2022/07/03 00:38:08;;;;;;;4.80;4.40;;;;;;;18.44;83.51;100863.74;130143;1268;108947;-73
2022/07/03 00:41:28;;;;;;;6.00;4.50;;;;;;;18.43;83.43;100858.91;130219;1268;108685;-73
2022/07/03 00:44:44;;;;;;;5.60;4.30;;;;;;;18.39;83.55;100855.95;130325;1268;108854;-73
2022/07/03 00:47:50;;;;;;;4.80;4.40;;;;;;;18.36;83.57;100852.52;130108;1268;108903;-73
2022/07/03 00:50:56;;;;;;;6.00;4.90;;;;;;;18.32;83.67;100858.80;130144;1268;108751;-74
2022/07/03 00:54:03;;;;;;;6.30;4.30;;;;;;;18.32;83.53;100848.97;130308;1268;107050;-74
2022/07/03 00:57:13;;;;;;;7.40;4.60;;;;;;;18.31;83.63;100848.17;130232;1268;108337;-75
2022/07/03 01:00:19;;;;;;;5.00;4.50;;;;;;;18.30;83.59;100843.29;130164;1268;108022;-74
2022/07/03 01:03:28;;;;;;;6.60;4.80;;;;;;;18.31;83.66;100842.02;130223;1268;108761;-74
2022/07/03 01:06:39;;;;;;;6.10;5.20;;;;;;;18.30;83.49;100840.52;130335;1268;107665;-74
2022/07/03 01:09:56;;;;;;;7.50;4.80;;;;;;;18.19;83.60;100839.88;130139;1268;109198;-74
2022/07/03 01:13:08;;;;;;;4.80;4.30;;;;;;;18.16;83.78;100837.55;130263;1268;108602;-74
2022/07/03 01:16:24;;;;;;;6.60;4.60;;;;;;;18.13;83.75;100835.73;130194;1268;108801;-72
2022/07/03 01:19:42;;;;;;;6.20;5.30;;;;;;;18.09;83.94;100833.47;130194;1268;108276;-72
2022/07/03 01:22:55;;;;;;;6.00;5.00;;;;;;;18.06;84.01;100838.39;130188;1268;108775;-72
2022/07/03 01:26:05;;;;;;;7.80;5.30;;;;;;;18.10;83.95;100837.27;130291;1268;107733;-72
2022/07/03 01:29:15;;;;;;;5.40;4.80;;;;;;;18.07;83.92;100833.32;130221;1268;108763;-72
2022/07/03 01:32:24;;;;;;;6.50;5.10;;;;;;;18.04;83.96;100829.30;130215;1268;108833;-72
2022/07/03 01:35:35;;;;;;;5.60;5.00;;;;;;;18.01;84.02;100830.96;130292;1268;107835;-74
2022/07/03 01:38:42;;;;;;;8.40;5.10;;;;;;;18.02;84.07;100829.60;130214;1268;108698;-75
2022/07/03 01:41:51;;;;;;;9.20;4.60;;;;;;;18.03;84.00;100826.19;130358;1267;109553;-73
2022/07/03 01:44:59;;;;;;;9.30;4.10;;;;;;;17.99;84.07;100830.06;130190;1268;109005;-73
2022/07/03 01:48:05;;;;;;;7.50;4.30;;;;;;;17.98;84.23;100830.73;130221;1268;108578;-74
2022/07/03 01:51:13;;;;;;;7.20;4.90;;;;;;;18.02;84.26;100823.39;130256;1268;108713;-73
2022/07/03 01:54:20;;;;;;;5.90;4.90;;;;;;;18.05;84.09;100827.37;130166;1268;108706;-74
2022/07/03 01:57:35;;;;;;;6.50;4.40;;;;;;;18.02;83.98;100822.02;130177;1267;108703;-73
2022/07/03 02:00:47;;;;;;;6.20;4.20;;;;;;;17.97;84.05;100820.65;130203;1268;108680;-74
2022/07/03 02:04:13;;;;;;;5.50;4.60;;;;;;;17.97;84.09;100821.94;130196;1268;108958;-74
2022/07/03 02:07:28;;;;;;;6.00;4.70;;;;;;;17.98;84.10;100821.88;130264;1268;107367;-74
2022/07/03 02:10:40;;;;;;;5.50;4.90;;;;;;;17.96;83.96;100822.84;130183;1268;108972;-75
2022/07/03 02:13:51;;;;;;;;;;;;;;;17.91;84.08;100821.91;130254;1268;108656;-75
2022/07/03 02:17:10;;;;;;;5.80;4.40;;;;;;;17.89;84.11;100824.69;130205;1268;107681;-75
2022/07/03 02:20:17;;;;;;;6.70;5.50;;;;;;;17.85;84.16;100827.47;130315;1268;108512;-75
2022/07/03 02:23:31;;;;;;;7.50;6.70;;;;;;;17.80;84.14;100819.30;130260;1268;108725;-76
2022/07/03 02:26:41;;;;;;;7.90;6.70;;;;;;;17.72;84.24;100817.17;130198;1268;108903;-75
2022/07/03 02:29:50;;;;;;;7.50;6.70;;;;;;;17.67;84.52;100812.70;130346;1268;108889;-72
2022/07/03 02:32:58;;;;;;;8.00;6.20;;;;;;;17.64;84.53;100807.48;130257;1268;108835;-72
2022/07/03 02:36:04;;;;;;;8.40;5.70;;;;;;;17.69;84.65;100810.52;130260;1268;108393;-72
2022/07/03 02:39:20;;;;;;;8.20;6.60;;;;;;;17.76;84.62;100807.55;130169;1268;109196;-73
2022/07/03 02:42:36;;;;;;;10.10;7.00;;;;;;;17.79;84.55;100805.02;130224;1268;108773;-73
2022/07/03 02:45:45;;;;;;;7.10;6.10;;;;;;;17.72;84.47;100803.10;130085;1268;108758;-73
2022/07/03 02:48:57;;;;;;;7.70;6.30;;;;;;;17.71;84.75;100800.55;130322;1268;107991;-75
2022/07/03 02:52:13;;;;;;;7.20;6.30;;;;;;;17.69;84.65;100799.52;130234;1268;108604;-75
2022/07/03 02:55:35;;;;;;;6.90;6.30;;;;;;;17.72;84.71;100790.92;130223;1268;107626;-74
2022/07/03 02:59:05;;;;;;;9.30;6.70;;;;;;;17.78;84.69;100792.34;130201;1268;108722;-75
2022/07/03 03:02:18;;;;;;;7.30;6.00;;;;;;;17.83;84.63;100797.45;130216;1268;109494;-73
2022/07/03 03:05:36;;;;;;;7.80;5.80;;;;;;;17.84;84.56;100794.14;130233;1267;108902;-73
2022/07/03 03:08:48;;;;;;;8.10;6.00;;;;;;;17.88;84.57;100789.92;130226;1268;108934;-75
2022/07/03 03:11:56;;;;;;;5.80;4.60;;;;;;;17.95;84.38;100796.70;130210;1268;108826;-74
2022/07/03 03:15:06;;;;;;;8.90;5.40;;;;;;;18.03;84.30;100806.52;130185;1268;108840;-73
2022/07/03 03:18:19;;;;;;;6.80;5.10;;;;;;;18.18;84.48;100808.49;130218;1268;109116;-73
2022/07/03 03:21:28;;;;;;;6.40;4.50;;;;;;;18.43;84.15;100808.98;130228;1267;109009;-74
2022/07/03 03:24:35;;;;;;;7.30;4.60;;;;;;;18.72;83.98;100809.54;130254;1268;108454;-74
2022/07/03 03:27:41;;;;;;;6.40;5.60;;;;;;;18.96;83.72;100809.15;130255;1268;108428;-75
2022/07/03 03:30:47;;;;;;;8.10;5.50;;;;;;;19.25;83.65;100806.61;130273;1268;108483;-75
2022/07/03 03:33:53;;;;;;;7.40;5.40;;;;;;;19.54;83.11;100799.85;130225;1268;107619;-74
2022/07/03 03:36:59;;;;;;;5.80;5.20;;;;;;;19.65;82.66;100802.30;130267;1267;108864;-74
2022/07/03 03:40:07;;;;;;;7.20;6.00;;;;;;;19.67;82.72;100797.29;130281;1268;108704;-74
2022/07/03 03:43:12;;;;;;;11.20;6.50;;;;;;;19.75;82.29;100796.13;130267;1268;108588;-74
2022/07/03 03:46:17;;;;;;;8.60;6.90;;;;;;;19.86;81.80;100801.89;130189;1268;108786;-74
2022/07/03 03:49:23;;;;;;;7.50;6.70;;;;;;;20.00;81.98;100801.55;130289;1268;108812;-74
2022/07/03 03:52:29;;;;;;;7.50;6.00;;;;;;;20.17;81.32;100798.15;130231;1268;108717;-74
2022/07/03 03:55:34;;;;;;;7.90;5.70;;;;;;;20.24;81.77;100797.96;130269;1268;108777;-75
2022/07/03 03:58:42;;;;;;;7.60;6.10;;;;;;;20.37;81.19;100802.59;130217;1268;106895;-77
2022/07/03 04:01:47;;;;;;;7.70;6.20;;;;;;;20.37;80.82;100800.72;130259;1268;108872;-75
2022/07/03 04:04:53;;;;;;;6.70;5.70;;;;;;;20.33;80.74;100798.16;130235;1268;109052;-75
2022/07/03 04:07:59;;;;;;;6.90;6.20;;;;;;;20.33;81.11;100796.08;130169;1268;108985;-74
2022/07/03 04:11:04;;;;;;;6.40;5.40;;;;;;;20.24;80.23;100797.21;130297;1268;108363;-74
2022/07/03 04:14:09;;;;;;;6.40;5.80;;;;;;;20.09;80.91;100799.08;130226;1268;109705;-71
2022/07/03 04:17:15;;;;;;;8.10;5.90;;;;;;;20.13;80.89;100793.84;130278;1268;107785;-71
2022/07/03 04:20:20;;;;;;;8.70;6.00;;;;;;;20.23;80.42;100796.67;130212;1268;107750;-72
2022/07/03 04:23:26;;;;;;;5.80;5.20;;;;;;;20.37;80.40;100796.79;130258;1268;108817;-72
2022/07/03 04:26:31;;;;;;;6.80;5.40;;;;;;;20.58;79.95;100795.23;130137;1268;109038;-72
2022/07/03 04:29:36;;;;;;;5.50;4.50;;;;;;;20.74;79.42;100796.89;130180;1268;108872;-72
2022/07/03 04:32:42;;;;;;;7.00;4.40;;;;;;;20.83;79.12;100795.52;130174;1268;108776;-73
2022/07/03 04:35:47;;;;;;;7.20;4.30;;;;;;;21.06;78.75;100800.05;130198;1268;108749;-75
2022/07/03 04:38:53;;;;;;;5.90;4.40;;;;;;;21.11;77.24;100800.41;130234;1268;108744;-77
2022/07/03 04:41:58;;;;;;;5.60;4.20;;;;;;;21.11;77.86;100796.16;130225;1268;108591;-80
2022/07/03 04:45:05;;;;;;;5.40;3.90;;;;;;;21.19;78.25;100792.64;130227;1268;108858;-79
2022/07/03 04:48:10;;;;;;;6.20;2.90;;;;;;;21.33;78.30;100788.91;130202;1268;108704;-80
2022/07/03 04:51:16;;;;;;;5.70;2.70;;;;;;;21.65;78.48;100791.97;130195;1268;108954;-79
2022/07/03 04:54:21;;;;;;;3.30;2.40;;;;;;;21.93;77.31;100784.48;130210;1268;109138;-78
2022/07/03 04:57:28;;;;;;;4.60;2.90;;;;;;;22.14;77.02;100781.17;130187;1268;108995;-76
2022/07/03 05:00:34;;;;;;;4.70;2.50;;;;;;;22.38;76.83;100774.77;130293;1268;109990;-78
2022/07/03 05:03:40;;;;;;;4.30;2.50;;;;;;;22.48;75.33;100776.41;130261;1268;108923;-78
2022/07/03 05:06:46;;;;;;;4.70;2.50;;;;;;;22.49;75.88;100777.15;130238;1268;108972;-77
2022/07/03 05:09:51;;;;;;;3.10;2.40;;;;;;;22.66;75.09;100777.29;130292;1268;107860;-75
2022/07/03 05:12:57;;;;;;;4.40;2.30;;;;;;;22.68;74.18;100778.14;130199;1268;108869;-75
2022/07/03 05:16:02;;;;;;;2.80;2.10;;;;;;;22.73;73.82;100776.60;130286;1268;108850;-76
2022/07/03 05:19:08;;;;;;;3.30;2.10;;;;;;;22.65;72.10;100784.29;130238;1268;108769;-77
2022/07/03 05:22:14;;;;;;;5.50;2.10;;;;;;;22.66;73.43;100785.36;130260;1268;108958;-76
2022/07/03 05:25:19;;;;;;;3.90;2.30;;;;;;;22.85;73.65;100785.85;130234;1267;108953;-79
2022/07/03 05:28:25;;;;;;;3.80;2.20;;;;;;;22.86;72.50;100789.61;130190;1268;108883;-77
2022/07/03 05:31:30;;;;;;;3.90;2.00;;;;;;;22.90;72.61;100787.53;130186;1268;108946;-79
2022/07/03 05:34:36;;;;;;;3.80;2.00;;;;;;;22.94;71.54;100785.40;130227;1268;108857;-77
2022/07/03 05:37:41;;;;;;;3.80;2.10;;;;;;;22.76;68.50;100784.41;130191;1268;108865;-77
2022/07/03 05:40:46;;;;;;;3.70;1.60;;;;;;;22.33;68.95;100787.20;130203;1268;108950;-77
2022/07/03 05:43:52;;;;;;;2.40;1.70;;;;;;;22.18;70.80;100786.84;130242;1268;108817;-76
2022/07/03 05:46:57;;;;;;;3.10;1.30;;;;;;;22.21;67.60;100791.94;130206;1268;108861;-77
2022/07/03 05:50:03;;;;;;;2.40;1.50;;;;;;;21.89;65.48;100792.98;130184;1268;108664;-78
2022/07/03 05:53:09;;;;;;;2.20;1.50;;;;;;;21.83;68.88;100789.88;130198;1268;109583;-78
2022/07/03 05:56:15;;;;;;;2.20;1.20;;;;;;;22.10;70.18;100792.69;130173;1267;108848;-78
2022/07/03 05:59:20;;;;;;;3.70;1.30;;;;;;;22.31;69.03;100793.23;130286;1268;108805;-77
2022/07/03 06:02:25;;;;;;;3.80;1.20;;;;;;;22.32;65.96;100794.32;130213;1268;108685;-77
2022/07/03 06:05:32;;;;;;;2.10;1.30;;;;;;;22.13;66.73;100786.31;130186;1268;108897;-78
2022/07/03 06:08:38;;;;;;;2.10;1.10;;;;;;;22.01;65.23;100782.95;130204;1268;108136;-78
2022/07/03 06:11:43;;;;;;;2.90;1.00;;;;;;;21.91;65.26;100780.43;130150;1268;108868;-77
2022/07/03 06:14:48;;;;;;;2.00;1.40;;;;;;;21.78;63.55;100784.41;130190;1268;109385;-77
2022/07/03 06:17:54;;;;;;;2.00;1.30;;;;;;;21.54;64.53;100785.19;130181;1268;109005;-77
2022/07/03 06:21:00;;;;;;;3.00;1.20;;;;;;;21.50;64.11;100783.90;130314;1268;108687;-75
2022/07/03 06:24:06;;;;;;;1.80;1.20;;;;;;;21.43;62.85;100780.89;130396;1268;108678;-77
2022/07/03 06:27:11;;;;;;;2.10;1.30;;;;;;;21.36;62.98;100779.27;130210;1268;108795;-77
2022/07/03 06:30:17;;;;;;;2.30;1.10;;;;;;;21.32;62.21;100778.23;130235;1267;108713;-77
2022/07/03 06:33:22;;;;;;;2.10;1.30;;;;;;;21.21;61.27;100778.15;130247;1267;108952;-77
2022/07/03 06:36:28;;;;;;;4.50;1.40;;;;;;;21.06;61.95;100776.66;130246;1268;108822;-75
2022/07/03 06:39:34;;;;;;;1.30;0.90;;;;;;;20.98;62.19;100777.42;130335;1267;108952;-77
2022/07/03 06:42:39;;;;;;;1.80;1.10;;;;;;;20.99;61.89;100770.95;130383;1267;108722;-74
2022/07/03 06:45:45;;;;;;;2.60;1.10;;;;;;;20.92;60.53;100765.81;130357;1267;108919;-72
2022/07/03 06:48:50;;;;;;;2.20;1.10;;;;;;;20.79;61.68;100764.82;130337;1267;108837;-75
2022/07/03 06:51:56;;;;;;;1.50;1.10;;;;;;;20.83;61.77;100761.27;130384;1267;108708;-80
2022/07/03 06:55:01;;;;;;;1.90;1.00;;;;;;;20.84;62.00;100759.81;130475;1267;108982;-77
2022/07/03 06:58:06;;;;;;;1.90;1.20;;;;;;;20.96;62.42;100755.05;130320;1266;108842;-77
2022/07/03 07:01:12;;;;;;;1.70;0.90;;;;;;;20.96;60.29;100750.96;130267;1268;108885;-74
2022/07/03 07:04:18;;;;;;;1.60;1.00;;;;;;;20.93;61.53;100748.92;130373;1267;107623;-78
2022/07/03 07:07:23;;;;;;;1.90;1.20;;;;;;;21.03;61.39;100747.40;130438;1268;110421;-75
2022/07/03 07:10:29;;;;;;;3.40;1.00;;;;;;;21.02;58.44;100746.61;130262;1268;108881;-79
2022/07/03 07:13:36;;;;;;;2.40;1.00;;;;;;;20.91;59.74;100742.62;130276;1268;108152;-77
2022/07/03 07:16:42;;;;;;;1.70;1.00;;;;;;;21.00;58.96;100741.07;130274;1268;108781;-75
2022/07/03 07:19:47;;;;;;;3.30;1.00;;;;;;;20.98;59.53;100739.77;130284;1268;108841;-77
2022/07/03 07:22:52;;;;;;;2.50;1.20;;;;;;;21.00;58.24;100738.93;130280;1268;108998;-81
2022/07/03 07:25:58;;;;;;;1.90;1.00;;;;;;;21.00;57.89;100736.14;130377;1268;107658;-73
2022/07/03 07:29:03;;;;;;;1.20;0.90;;;;;;;20.96;56.50;100731.73;130265;1268;108687;-74
2022/07/03 07:32:09;;;;;;;2.10;0.90;;;;;;;20.96;57.53;100729.09;130442;1269;107487;-75
2022/07/03 07:35:15;;;;;;;3.20;1.40;;;;;;;21.06;59.28;100726.83;130391;1267;108748;-75
2022/07/03 07:38:20;;;;;;;3.40;1.60;;;;;;;21.24;59.52;100724.91;130296;1268;108868;-75
2022/07/03 07:41:26;;;;;;;1.80;1.00;;;;;;;21.32;56.65;100719.71;130290;1268;108653;-75
2022/07/03 07:44:31;;;;;;;1.70;1.10;;;;;;;21.25;56.99;100724.95;130276;1268;108968;-75
2022/07/03 07:47:37;;;;;;;1.30;0.90;;;;;;;21.30;58.21;100719.60;130254;1268;108687;-75
2022/07/03 07:50:42;;;;;;;1.60;1.00;;;;;;;21.32;57.22;100716.76;130351;1268;108944;-76
2022/07/03 07:53:49;;;;;;;3.00;1.00;;;;;;;21.31;57.59;100713.00;130368;1267;108885;-74
2022/07/03 07:56:54;;;;;;;1.50;1.10;;;;;;;21.36;57.24;100707.64;130404;1266;108698;-73
2022/07/03 07:59:59;;;;;;;5.20;1.10;;;;;;;21.35;57.46;100705.84;130316;1266;108922;-75
2022/07/03 08:06:28;;;;;;;1.20;1.10;;;;;;;21.41;56.83;100701.74;130469;1267;109001;-76
2022/07/03 08:09:33;;;;;;;2.30;1.30;;;;;;;21.45;56.90;100702.30;130382;1267;108916;-76
2022/07/03 08:12:39;;;;;;;1.30;1.00;;;;;;;21.45;56.69;100704.42;130389;1266;108825;-79
2022/07/03 08:15:46;;;;;;;2.20;1.00;;;;;;;21.52;56.59;100702.36;130549;1267;108740;-76
2022/07/03 08:18:53;;;;;;;1.90;0.90;;;;;;;21.64;56.55;100705.40;130538;1267;108733;-77
2022/07/03 08:21:59;;;;;;;1.00;0.90;;;;;;;21.70;55.67;100708.59;130562;1267;106771;-77
2022/07/03 08:25:05;;;;;;;1.30;1.00;;;;;;;21.71;56.45;100710.43;130380;1267;108138;-76
2022/07/03 08:28:10;;;;;;;1.50;1.00;;;;;;;21.79;56.82;100706.80;130372;1267;108834;-75
2022/07/03 08:31:16;;;;;;;1.30;0.90;;;;;;;21.96;55.72;100698.19;130326;1268;108073;-78
2022/07/03 08:34:21;;;;;;;1.70;1.20;;;;;;;21.96;53.75;100695.67;130460;1267;108812;-75
2022/07/03 08:37:28;;;;;;;3.40;0.90;;;;;;;21.98;55.01;100691.90;130184;1268;108783;-76
2022/07/03 08:40:33;;;;;;;1.20;1.00;;;;;;;22.02;55.16;100688.20;130230;1268;108747;-79
2022/07/03 08:43:42;;;;;;;1.40;1.10;;;;;;;22.10;55.78;100686.02;130250;1268;109607;-79
2022/07/03 08:46:50;;;;;;;1.70;1.20;;;;;;;22.21;55.38;100683.77;130323;1269;109215;-79
2022/07/03 08:49:57;;;;;;;0.90;0.80;;;;;;;22.27;52.91;100689.98;130404;1268;108794;-82
2022/07/03 08:53:04;;;;;;;1.10;0.90;;;;;;;22.20;52.33;100688.47;130326;1270;108588;-79
2022/07/03 08:56:10;;;;;;;2.80;0.90;;;;;;;22.13;53.38;100688.17;130277;1269;108735;-76
2022/07/03 08:59:16;;;;;;;1.60;1.30;;;;;;;22.17;52.69;100689.79;130196;1268;108864;-75
2022/07/03 09:02:22;;;;;;;2.70;1.20;;;;;;;22.22;53.14;100687.88;130233;1269;107563;-76
2022/07/03 09:05:28;;;;;;;2.10;1.10;;;;;;;22.25;52.58;100683.44;130337;1268;109191;-73
2022/07/03 09:08:35;;;;;;;2.20;0.80;;;;;;;22.27;52.86;100684.73;130194;1268;108772;-72
2022/07/03 09:11:40;;;;;;;1.60;0.80;;;;;;;22.32;52.32;100682.56;130208;1268;108965;-73
2022/07/03 09:14:45;;;;;;;2.80;1.00;;;;;;;22.37;51.85;100680.60;130196;1267;108677;-72
2022/07/03 09:18:03;;;;;;;2.40;1.00;;;;;;;22.28;52.58;100681.34;130100;1270;108064;-73
2022/07/03 09:21:09;;;;;;;2.30;0.90;;;;;;;22.24;50.42;100677.67;130228;1268;109759;-77
2022/07/03 09:24:17;;;;;;;1.40;1.00;;;;;;;22.28;52.45;100678.33;130302;1267;108166;-76
2022/07/03 09:27:26;;;;;;;1.80;0.80;;;;;;;22.31;51.39;100681.27;130386;1267;108881;-75
2022/07/03 09:30:35;;;;;;;2.40;1.00;;;;;;;22.37;51.70;100676.08;130177;1268;108772;-77
2022/07/03 09:33:50;;;;;;;1.60;1.00;;;;;;;22.34;51.69;100671.96;130348;1268;108949;-73
2022/07/03 09:36:55;;;;;;;1.10;0.80;;;;;;;22.32;51.52;100674.11;130260;1268;108782;-75
2022/07/03 09:40:02;;;;;;;2.20;1.00;;;;;;;22.41;52.55;100675.84;130248;1268;108730;-75
2022/07/03 09:43:09;;;;;;;1.00;0.80;;;;;;;22.51;51.80;100673.55;130296;1268;108766;-80
2022/07/03 09:46:15;;;;;;;2.40;1.10;;;;;;;22.58;52.31;100664.95;130440;1267;109769;-81
2022/07/03 09:49:20;;;;;;;1.20;0.80;;;;;;;22.63;51.77;100666.38;130407;1266;108787;-80
2022/07/03 09:52:31;;;;;;;1.80;0.80;;;;;;;22.67;52.07;100660.42;130355;1268;108820;-79
2022/07/03 09:55:36;;;;;;;2.90;1.50;;;;;;;22.78;51.96;100657.83;130284;1268;109028;-79
2022/07/03 09:58:42;;;;;;;1.70;0.90;;;;;;;22.86;51.05;100661.38;130316;1267;108653;-79
2022/07/03 10:01:48;;;;;;;1.40;0.80;;;;;;;22.93;51.49;100658.23;130284;1269;108869;-79
2022/07/03 10:05:13;;;;;;;0.90;0.80;;;;;;;23.00;51.37;100656.05;130257;1270;109038;-76
2022/07/03 10:08:21;;;;;;;3.80;0.90;;;;;;;23.06;51.09;100649.80;130239;1268;109047;-78
2022/07/03 10:11:27;;;;;;;1.40;0.80;;;;;;;23.10;51.53;100642.27;130225;1269;108752;-75
2022/07/03 10:14:34;;;;;;;1.40;0.90;;;;;;;23.17;51.34;100643.14;130320;1270;108890;-78
2022/07/03 10:17:39;;;;;;;1.90;0.70;;;;;;;23.18;50.42;100639.11;130396;1267;109751;-79
2022/07/03 10:20:48;;;;;;;1.40;0.80;;;;;;;23.15;50.93;100637.59;130416;1267;108990;-77
2022/07/03 10:23:54;;;;;;;2.00;0.80;;;;;;;23.18;51.22;100635.88;130226;1270;108209;-76
2022/07/03 10:27:01;;;;;;;3.50;0.80;;;;;;;23.21;50.87;100636.69;130305;1270;107666;-77
2022/07/03 10:30:07;;;;;;;2.10;0.70;;;;;;;23.21;50.59;100630.20;130284;1268;108903;-77
2022/07/03 10:33:13;;;;;;;1.20;0.80;;;;;;;23.27;50.83;100623.63;130300;1268;107647;-76
2022/07/03 10:36:19;;;;;;;3.50;0.90;;;;;;;23.31;51.82;100618.46;130317;1269;108136;-78
2022/07/03 10:39:34;;;;;;;2.00;1.00;;;;;;;23.35;49.93;100619.16;130234;1270;108821;-79
2022/07/03 10:46:15;;;;;;;1.90;0.80;;;;;;;23.37;50.13;100608.05;130286;1268;108788;-78
2022/07/03 10:49:20;;;;;;;1.70;0.70;;;;;;;23.43;50.59;100604.73;130309;1269;108841;-77
2022/07/03 10:52:26;;;;;;;1.70;0.70;;;;;;;23.55;51.21;100604.54;130261;1268;108920;-75
2022/07/03 10:55:31;;;;;;;1.20;0.60;;;;;;;23.65;50.18;100603.31;130354;1270;108900;-75
2022/07/03 10:58:57;;;;;;;1.30;0.70;;;;;;;23.70;50.49;100597.74;130240;1269;108034;-75
2022/07/03 11:02:22;;;;;;;1.10;0.60;;;;;;;23.74;51.32;100597.23;130266;1268;108634;-76
2022/07/03 11:05:36;;;;;;;1.50;0.80;;;;;;;23.86;50.70;100589.09;130245;1270;108811;-77
2022/07/03 11:09:05;;;;;;;0.70;0.60;;;;;;;23.74;49.77;100585.70;130289;1270;108664;-75
2022/07/03 11:12:11;;;;;;;1.00;0.70;;;;;;;23.77;49.35;100587.17;130236;1269;108980;-77
2022/07/03 11:15:30;;;;;;;1.90;0.70;;;;;;;23.85;50.41;100580.57;130300;1268;107826;-77
2022/07/03 11:18:36;;;;;;;2.40;0.90;;;;;;;23.89;50.30;100576.91;130429;1270;107237;-76
2022/07/03 11:21:51;;;;;;;2.40;0.70;;;;;;;23.93;49.29;100570.60;130337;1269;108309;-74
2022/07/03 11:24:57;;;;;;;1.50;0.60;;;;;;;23.92;48.08;100570.20;130280;1269;108554;-77
2022/07/03 11:28:02;;;;;;;0.90;0.60;;;;;;;23.89;48.21;100569.48;130094;1268;269846;-74
2022/07/03 11:31:27;;;;;;;1.10;0.70;;;;;;;23.87;48.03;100568.01;130292;1268;108917;-80
2022/07/03 11:34:44;;;;;;;1.60;0.80;;;;;;;23.75;48.34;100564.48;130238;1270;108711;-75
2022/07/03 11:37:50;;;;;;;0.90;0.70;;;;;;;23.72;49.58;100555.66;130359;1268;108354;-76
2022/07/03 11:40:58;;;;;;;0.80;0.70;;;;;;;23.92;50.19;100562.69;130232;1268;108905;-77
2022/07/03 11:44:04;;;;;;;1.60;0.70;;;;;;;24.10;49.07;100559.31;130248;1270;108601;-76
2022/07/03 11:47:11;;;;;;;1.20;0.70;;;;;;;24.20;48.76;100558.30;130395;1269;107459;-75
2022/07/03 11:50:16;;;;;;;1.20;0.80;;;;;;;24.23;48.37;100559.37;130275;1268;108980;-82
2022/07/03 11:53:27;;;;;;;0.80;0.60;;;;;;;24.24;48.54;100555.79;130258;1269;108668;-75
2022/07/03 11:56:34;;;;;;;1.90;0.80;;;;;;;24.35;49.20;100554.34;130300;1268;108819;-77
2022/07/03 11:59:39;;;;;;;2.60;0.90;;;;;;;24.48;49.14;100556.19;130217;1268;108711;-71
2022/07/03 12:02:52;;;;;;;1.40;1.00;;;;;;;24.61;49.90;100547.05;130270;1269;108855;-72
2022/07/03 12:05:59;;;;;;;1.70;0.80;;;;;;;24.81;49.93;100550.66;130244;1269;108953;-76
2022/07/03 12:09:13;;;;;;;0.90;0.70;;;;;;;24.96;48.67;100548.46;130357;1267;108904;-76
2022/07/03 12:12:24;;;;;;;1.40;0.70;;;;;;;25.12;48.03;100544.63;130348;1269;108255;-78
2022/07/03 12:15:30;;;;;;;1.20;0.70;;;;;;;25.26;48.26;100540.34;130299;1268;108602;-80
2022/07/03 12:18:50;;;;;;;1.80;1.10;;;;;;;25.42;48.31;100542.34;130392;1268;108914;-80
2022/07/03 12:21:55;;;;;;;3.60;1.70;;;;;;;25.58;48.90;100531.60;130448;1268;107886;-84
2022/07/03 12:25:03;;;;;;;2.50;1.40;;;;;;;25.69;49.05;100537.27;130339;1270;108842;-79
2022/07/03 12:28:09;;;;;;;0.90;0.70;;;;;;;25.83;47.63;100535.03;130450;1267;108849;-77
2022/07/03 12:31:15;;;;;;;1.60;0.70;;;;;;;25.84;46.63;100531.66;130523;1267;108576;-78
2022/07/03 12:34:21;;;;;;;1.40;0.80;;;;;;;25.70;46.46;100530.66;130334;1267;108607;-79
2022/07/03 12:37:37;;;;;;;1.10;0.70;;;;;;;25.42;45.16;100527.43;130470;1267;108608;-79
2022/07/03 12:40:43;;;;;;;1.60;0.70;;;;;;;25.01;46.76;100524.80;130485;1267;108738;-78
2022/07/03 12:43:50;;;;;;;1.30;0.80;;;;;;;24.84;47.41;100522.71;130586;1267;108785;-78
2022/07/03 12:46:56;;;;;;;1.40;0.80;;;;;;;24.75;47.42;100518.16;130477;1267;108220;-76
2022/07/03 12:50:03;;;;;;;1.90;0.90;;;;;;;24.73;47.84;100511.56;131321;1266;108767;-77
2022/07/03 12:53:08;;;;;;;0.70;0.70;;;;;;;24.78;47.54;100506.43;131984;1266;108646;-74
2022/07/03 12:56:14;;;;;;;2.20;0.80;;;;;;;24.88;47.66;100505.83;130430;1267;107824;-77
2022/07/03 12:59:29;;;;;;;2.00;0.80;;;;;;;25.02;47.54;100505.17;130422;1267;108201;-76
2022/07/03 13:02:35;;;;;;;1.40;0.80;;;;;;;25.13;47.18;100507.13;130496;1267;108522;-73
2022/07/03 13:05:45;;;;;;;1.50;0.80;;;;;;;25.11;46.80;100506.27;130383;1267;107735;-73
2022/07/03 13:08:58;;;;;;;3.00;1.30;;;;;;;25.09;47.17;100504.17;130240;1267;108652;-69
2022/07/03 13:12:05;;;;;;;1.20;1.00;;;;;;;25.07;47.22;100499.17;130295;1267;109010;-72
2022/07/03 13:15:12;;;;;;;1.80;0.90;;;;;;;25.15;47.29;100496.61;130349;1267;108561;-73
2022/07/03 13:18:18;;;;;;;0.90;0.80;;;;;;;25.28;46.57;100494.72;130369;1266;108708;-71
2022/07/03 13:21:23;;;;;;;2.20;0.80;;;;;;;25.32;46.65;100490.71;130371;1267;108863;-71
2022/07/03 13:24:28;;;;;;;1.70;1.00;;;;;;;25.28;47.42;100490.25;130410;1267;108963;-74
2022/07/03 13:27:34;;;;;;;2.80;1.20;;;;;;;25.32;48.11;100491.09;130563;1267;108871;-72
2022/07/03 13:30:40;;;;;;;1.40;1.00;;;;;;;25.40;48.42;100488.88;130416;1267;108725;-75
2022/07/03 13:33:45;;;;;;;1.90;1.20;;;;;;;25.47;48.57;100492.23;130419;1267;108783;-75
2022/07/03 13:36:51;;;;;;;1.70;1.40;;;;;;;25.49;48.52;100488.38;130371;1266;108816;-76
2022/07/03 13:39:56;;;;;;;1.10;0.80;;;;;;;25.54;48.44;100485.34;130397;1267;108647;-74
2022/07/03 13:43:01;;;;;;;2.10;1.40;;;;;;;25.55;48.27;100482.52;130336;1267;108944;-74
2022/07/03 13:46:07;;;;;;;2.60;1.60;;;;;;;25.62;48.65;100473.45;130322;1267;108539;-76
2022/07/03 13:49:12;;;;;;;2.80;1.70;;;;;;;25.68;48.91;100479.07;130395;1267;108651;-72
2022/07/03 13:52:18;;;;;;;2.90;1.30;;;;;;;25.69;48.92;100473.95;130387;1267;109032;-73
2022/07/03 13:55:23;;;;;;;2.30;1.40;;;;;;;25.62;48.86;100484.67;130391;1267;108593;-74
2022/07/03 13:58:29;;;;;;;1.80;1.20;;;;;;;25.60;48.88;100479.22;130409;1267;108813;-73
2022/07/03 14:01:35;;;;;;;1.50;1.00;;;;;;;25.61;48.91;100474.05;130536;1267;108580;-77
2022/07/03 14:04:40;;;;;;;2.50;1.20;;;;;;;25.64;48.82;100475.30;130441;1267;108812;-76
2022/07/03 14:07:45;;;;;;;2.10;1.00;;;;;;;25.64;49.01;100472.35;130204;1268;107236;-78
2022/07/03 14:10:51;;;;;;;1.50;1.10;;;;;;;25.65;48.98;100470.06;130433;1267;108859;-78
2022/07/03 14:13:57;;;;;;;1.60;0.90;;;;;;;25.72;48.93;100467.12;130427;1267;108831;-77
2022/07/03 14:17:02;;;;;;;1.80;1.10;;;;;;;25.76;49.07;100460.88;130383;1267;108922;-79
2022/07/03 14:20:10;;;;;;;1.50;1.00;;;;;;;25.83;48.65;100452.81;130425;1267;108891;-78